createdAt,value
2019-02-24T00:01:07.345Z,0.57
2019-02-24T00:02:13.524Z,0.57
2019-02-24T00:03:20.748Z,0.59
2019-02-24T00:04:26.939Z,0.59
2019-02-24T00:05:34.113Z,0.59
2019-02-24T00:06:41.074Z,0.57
2019-02-24T00:07:46.943Z,0.60
2019-02-24T00:08:54.121Z,0.61
2019-02-24T00:10:01.003Z,0.62
2019-02-24T00:11:07.324Z,0.64
2019-02-24T00:12:13.664Z,0.66
2019-02-24T00:13:20.415Z,0.65
2019-02-24T00:14:26.569Z,0.65
2019-02-24T00:15:33.155Z,0.65
2019-02-24T00:16:40.953Z,0.65
2019-02-24T00:17:48.261Z,0.64
2019-02-24T00:18:54.154Z,0.65
2019-02-24T00:20:00.799Z,0.66
2019-02-24T00:21:08.783Z,0.67
2019-02-24T00:22:16.833Z,0.67
2019-02-24T00:23:23.514Z,0.68
2019-02-24T00:24:30.244Z,0.70
2019-02-24T00:25:36.796Z,0.70
2019-02-24T00:26:43.545Z,0.70
2019-02-24T00:27:51.579Z,0.70
2019-02-24T00:28:57.542Z,0.69
2019-02-24T00:30:04.452Z,0.70
2019-02-24T00:31:11.142Z,0.71
2019-02-24T00:32:17.015Z,0.69
2019-02-24T00:33:23.897Z,0.69
2019-02-24T00:34:30.885Z,0.70
2019-02-24T00:35:38.800Z,0.68
2019-02-24T00:36:46.371Z,0.67
2019-02-24T00:37:52.770Z,0.67
2019-02-24T00:38:59.436Z,0.65
2019-02-24T00:40:07.715Z,0.66
2019-02-24T00:41:15.145Z,0.67
2019-02-24T00:42:21.713Z,0.68
2019-02-24T00:43:28.543Z,0.68
2019-02-24T00:44:35.649Z,0.67
2019-02-24T00:45:41.949Z,0.69
2019-02-24T00:46:48.428Z,0.69
2019-02-24T00:47:54.860Z,0.69
2019-02-24T00:49:02.331Z,0.69
2019-02-24T00:50:10.934Z,0.70
2019-02-24T00:51:18.360Z,0.71
2019-02-24T00:52:25.217Z,0.71
2019-02-24T00:53:31.971Z,0.73
2019-02-24T00:54:38.636Z,0.73
2019-02-24T00:55:46.446Z,0.74
2019-02-24T00:56:53.009Z,0.76
2019-02-24T00:57:59.468Z,0.78
2019-02-24T00:59:07.899Z,0.77
2019-02-24T01:00:15.850Z,0.78
2019-02-24T01:01:21.753Z,0.81
2019-02-24T01:02:29.790Z,0.81
2019-02-24T01:03:37.216Z,0.80
2019-02-24T01:04:43.269Z,0.82
2019-02-24T01:05:49.717Z,0.84
2019-02-24T01:06:56.736Z,0.86
2019-02-24T01:08:02.566Z,0.89
2019-02-24T01:09:09.406Z,0.88
2019-02-24T01:10:17.085Z,0.89
2019-02-24T01:11:23.205Z,0.91
2019-02-24T01:12:30.773Z,0.93
2019-02-24T01:13:39.576Z,0.94
2019-02-24T01:14:46.342Z,0.91
2019-02-24T01:15:52.340Z,0.93
2019-02-24T01:16:59.475Z,0.96
2019-02-24T01:18:06.484Z,0.97
2019-02-24T01:19:13.094Z,0.94
2019-02-24T01:20:19.634Z,0.90
2019-02-24T01:21:25.784Z,0.88
2019-02-24T01:22:32.836Z,0.90
2019-02-24T01:23:39.939Z,0.90
2019-02-24T01:24:45.880Z,0.89
2019-02-24T01:25:52.959Z,0.90
2019-02-24T01:26:59.832Z,0.89
2019-02-24T01:28:06.022Z,0.89
2019-02-24T01:29:12.806Z,0.89
2019-02-24T01:30:19.560Z,0.89
2019-02-24T01:31:25.664Z,0.90
2019-02-24T01:32:32.845Z,0.89
2019-02-24T01:33:39.285Z,0.89
2019-02-24T01:34:45.454Z,0.90
2019-02-24T01:35:52.137Z,0.89
2019-02-24T01:37:02.961Z,0.91
2019-02-24T01:38:09.380Z,0.89
2019-02-24T01:39:15.662Z,0.88
2019-02-24T01:40:22.558Z,0.85
2019-02-24T01:41:29.500Z,0.87
2019-02-24T01:42:35.971Z,0.83
2019-02-24T01:43:42.987Z,0.85
2019-02-24T01:44:49.961Z,0.86
2019-02-24T01:45:56.919Z,0.85
2019-02-24T01:47:04.175Z,0.84
2019-02-24T01:48:12.015Z,0.86
2019-02-24T01:49:18.886Z,0.84
2019-02-24T01:50:37.756Z,0.82
2019-02-24T01:51:46.004Z,0.82
2019-02-24T01:52:53.057Z,0.83
2019-02-24T01:53:58.970Z,0.84
2019-02-24T01:55:05.643Z,0.87
2019-02-24T01:56:12.852Z,0.87
2019-02-24T01:57:19.577Z,0.89
2019-02-24T01:58:34.596Z,0.89
2019-02-24T01:59:34.768Z,0.90
2019-02-24T02:00:41.296Z,0.90
2019-02-24T02:01:48.529Z,0.91
2019-02-24T02:02:55.464Z,0.93
2019-02-24T02:04:01.279Z,0.91
2019-02-24T02:05:09.211Z,0.89
2019-02-24T02:06:16.970Z,0.87
2019-02-24T02:07:23.015Z,0.88
2019-02-24T02:08:29.599Z,0.88
2019-02-24T02:09:36.430Z,0.90
2019-02-24T02:10:44.170Z,0.90
2019-02-24T02:11:51.862Z,0.87
2019-02-24T02:12:58.646Z,0.87
2019-02-24T02:14:04.904Z,0.87
2019-02-24T02:15:11.929Z,0.87
2019-02-24T02:16:19.217Z,0.88
2019-02-24T02:17:25.330Z,0.90
2019-02-24T02:18:32.237Z,0.90
2019-02-24T02:19:38.626Z,0.90
2019-02-24T02:20:44.405Z,0.87
2019-02-24T02:21:51.676Z,0.86
2019-02-24T02:22:59.060Z,0.88
2019-02-24T02:24:04.819Z,0.87
2019-02-24T02:25:11.136Z,0.85
2019-02-24T02:26:18.276Z,0.87
2019-02-24T02:27:24.145Z,0.88
2019-02-24T02:28:30.865Z,0.88
2019-02-24T02:29:37.683Z,0.89
2019-02-24T02:30:43.726Z,0.88
2019-02-24T02:31:49.938Z,0.87
2019-02-24T02:32:56.544Z,0.90
2019-02-24T02:34:02.304Z,0.88
2019-02-24T02:35:10.503Z,0.91
2019-02-24T02:36:17.526Z,0.90
2019-02-24T02:37:23.425Z,0.92
2019-02-24T02:38:30.087Z,0.91
2019-02-24T02:39:37.002Z,0.88
2019-02-24T02:40:43.414Z,0.90
2019-02-24T02:41:49.885Z,0.93
2019-02-24T02:42:56.990Z,0.92
2019-02-24T02:44:02.661Z,0.91
2019-02-24T02:45:09.982Z,0.93
2019-02-24T02:46:16.588Z,0.94
2019-02-24T02:47:22.735Z,0.97
2019-02-24T02:48:28.817Z,1.00
2019-02-24T02:49:35.647Z,1.00
2019-02-24T02:50:41.622Z,1.01
2019-02-24T02:51:48.153Z,1.02
2019-02-24T02:52:55.118Z,1.00
2019-02-24T02:54:00.788Z,1.04
2019-02-24T02:55:09.631Z,1.02
2019-02-24T02:56:16.212Z,1.01
2019-02-24T02:57:22.290Z,1.03
2019-02-24T02:58:28.704Z,1.04
2019-02-24T02:59:35.673Z,1.04
2019-02-24T03:00:42.710Z,1.05
2019-02-24T03:01:51.061Z,1.05
2019-02-24T03:02:58.220Z,1.07
2019-02-24T03:04:04.664Z,1.04
2019-02-24T03:05:12.121Z,1.05
2019-02-24T03:06:26.360Z,1.03
2019-02-24T03:07:43.409Z,1.05
2019-02-24T03:08:53.601Z,1.05
2019-02-24T03:09:59.662Z,1.06
2019-02-24T03:11:05.991Z,1.05
2019-02-24T03:12:13.935Z,1.07
2019-02-24T03:13:19.623Z,1.08
2019-02-24T03:14:26.246Z,1.09
2019-02-24T03:15:32.928Z,1.08
2019-02-24T03:16:39.058Z,1.07
2019-02-24T03:17:44.969Z,1.09
2019-02-24T03:18:51.857Z,1.10
2019-02-24T03:19:58.156Z,1.10
2019-02-24T03:21:04.680Z,1.07
2019-02-24T03:22:11.433Z,1.08
2019-02-24T03:23:17.260Z,1.08
2019-02-24T03:24:23.612Z,1.08
2019-02-24T03:25:29.860Z,1.10
2019-02-24T03:26:35.998Z,1.11
2019-02-24T03:27:42.487Z,1.09
2019-02-24T03:28:49.691Z,1.10
2019-02-24T03:29:55.986Z,1.10
2019-02-24T03:31:02.467Z,1.11
2019-02-24T03:32:10.024Z,1.10
2019-02-24T03:33:15.939Z,1.06
2019-02-24T03:34:22.729Z,1.06
2019-02-24T03:35:28.989Z,1.08
2019-02-24T03:36:34.737Z,1.08
2019-02-24T03:37:42.142Z,1.11
2019-02-24T03:38:48.265Z,1.12
2019-02-24T03:39:54.057Z,1.11
2019-02-24T03:41:00.749Z,1.12
2019-02-24T03:42:08.668Z,1.11
2019-02-24T03:43:14.919Z,1.10
2019-02-24T03:44:21.966Z,1.10
2019-02-24T03:45:28.473Z,1.12
2019-02-24T03:46:34.776Z,1.12
2019-02-24T03:47:42.370Z,1.14
2019-02-24T03:48:49.129Z,1.12
2019-02-24T03:49:54.861Z,1.16
2019-02-24T03:51:01.576Z,1.17
2019-02-24T03:52:08.412Z,1.17
2019-02-24T03:53:14.293Z,1.18
2019-02-24T03:54:21.396Z,1.15
2019-02-24T03:55:28.596Z,1.16
2019-02-24T03:56:35.662Z,1.16
2019-02-24T03:57:41.719Z,1.17
2019-02-24T03:58:49.139Z,1.17
2019-02-24T03:59:55.278Z,1.20
2019-02-24T04:01:01.898Z,1.19
2019-02-24T04:02:08.159Z,1.20
2019-02-24T04:03:14.158Z,1.21
2019-02-24T04:04:20.307Z,1.19
2019-02-24T04:05:27.670Z,1.20
2019-02-24T04:06:33.599Z,1.18
2019-02-24T04:07:40.793Z,1.18
2019-02-24T04:08:47.577Z,1.17
2019-02-24T04:09:55.436Z,1.20
2019-02-24T04:11:02.214Z,1.16
2019-02-24T04:12:10.445Z,1.16
2019-02-24T04:13:16.377Z,1.17
2019-02-24T04:14:24.008Z,1.13
2019-02-24T04:15:30.565Z,1.12
2019-02-24T04:16:36.890Z,1.11
2019-02-24T04:17:44.949Z,1.12
2019-02-24T04:18:51.852Z,1.13
2019-02-24T04:19:58.705Z,1.11
2019-02-24T04:21:25.188Z,1.11
2019-02-24T04:22:33.462Z,1.10
2019-02-24T04:24:58.792Z,1.12
2019-02-24T04:26:23.632Z,1.11
2019-02-24T04:27:31.029Z,1.12
2019-02-24T04:28:38.301Z,1.14
2019-02-24T04:29:44.489Z,1.10
2019-02-24T04:30:52.210Z,1.11
2019-02-24T04:31:59.258Z,1.14
2019-02-24T04:33:06.052Z,1.14
2019-02-24T04:34:13.647Z,1.14
2019-02-24T04:35:21.275Z,1.12
2019-02-24T04:36:27.163Z,1.10
2019-02-24T04:37:34.218Z,1.10
2019-02-24T04:38:41.739Z,1.11
2019-02-24T04:39:49.801Z,1.09
2019-02-24T04:40:57.112Z,1.10
2019-02-24T04:42:04.375Z,1.09
2019-02-24T04:43:11.302Z,1.10
2019-02-24T04:44:17.671Z,1.10
2019-02-24T04:45:23.886Z,1.10
2019-02-24T04:46:30.635Z,1.10
2019-02-24T04:47:37.424Z,1.07
2019-02-24T04:48:43.874Z,1.08
2019-02-24T04:49:50.829Z,1.05
2019-02-24T04:50:58.169Z,1.00
2019-02-24T04:52:04.704Z,0.99
2019-02-24T04:53:12.103Z,0.99
2019-02-24T04:54:18.921Z,0.97
2019-02-24T04:55:26.766Z,0.97
2019-02-24T04:56:33.596Z,0.94
2019-02-24T04:57:41.228Z,0.93
2019-02-24T04:58:47.234Z,0.90
2019-02-24T04:59:53.814Z,0.90
2019-02-24T05:01:00.920Z,0.89
2019-02-24T05:02:07.655Z,0.88
2019-02-24T05:03:14.316Z,0.86
2019-02-24T05:04:21.255Z,0.85
2019-02-24T05:05:27.124Z,0.85
2019-02-24T05:06:33.504Z,0.81
2019-02-24T05:07:40.030Z,0.81
2019-02-24T05:08:46.532Z,0.81
2019-02-24T05:09:54.589Z,0.80
2019-02-24T05:11:01.649Z,0.79
2019-02-24T05:12:07.529Z,0.78
2019-02-24T05:13:14.661Z,0.81
2019-02-24T05:14:21.040Z,0.81
2019-02-24T05:15:27.071Z,0.80
2019-02-24T05:16:34.717Z,0.80
2019-02-24T05:17:41.325Z,0.81
2019-02-24T05:18:48.550Z,0.80
2019-02-24T05:19:54.965Z,0.78
2019-02-24T05:21:01.444Z,0.77
2019-02-24T05:22:08.111Z,0.77
2019-02-24T05:23:15.719Z,0.77
2019-02-24T05:24:22.867Z,0.79
2019-02-24T05:25:28.812Z,0.80
2019-02-24T05:26:35.001Z,0.82
2019-02-24T05:27:42.159Z,0.84
2019-02-24T05:28:48.496Z,0.83
2019-02-24T05:29:55.439Z,0.85
2019-02-24T05:31:02.004Z,0.84
2019-02-24T05:32:08.256Z,0.87
2019-02-24T05:33:14.953Z,0.87
2019-02-24T05:34:21.287Z,0.87
2019-02-24T05:35:28.777Z,0.89
2019-02-24T05:36:35.275Z,0.91
2019-02-24T05:37:42.444Z,0.90
2019-02-24T05:38:48.540Z,0.90
2019-02-24T05:39:55.424Z,0.90
2019-02-24T05:41:02.909Z,0.90
2019-02-24T05:42:08.968Z,0.90
2019-02-24T05:43:15.759Z,0.91
2019-02-24T05:44:23.055Z,0.91
2019-02-24T05:45:28.816Z,0.88
2019-02-24T05:46:35.661Z,0.88
2019-02-24T05:47:43.246Z,0.89
2019-02-24T05:48:49.410Z,0.88
2019-02-24T05:49:55.653Z,0.89
2019-02-24T05:51:02.753Z,0.87
2019-02-24T05:52:09.005Z,0.88
2019-02-24T05:53:15.822Z,0.88
2019-02-24T05:54:22.505Z,0.88
2019-02-24T05:55:29.348Z,0.88
2019-02-24T05:56:35.510Z,0.87
2019-02-24T05:57:43.093Z,0.86
2019-02-24T05:58:48.971Z,0.90
2019-02-24T05:59:55.771Z,0.88
2019-02-24T06:01:02.494Z,0.87
2019-02-24T06:02:09.026Z,0.87
2019-02-24T06:03:15.108Z,0.88
2019-02-24T06:04:21.656Z,0.88
2019-02-24T06:05:28.988Z,0.88
2019-02-24T06:06:35.974Z,0.87
2019-02-24T06:07:41.866Z,0.85
2019-02-24T06:08:48.702Z,0.84
2019-02-24T06:09:55.195Z,0.85
2019-02-24T06:11:02.153Z,0.84
2019-02-24T06:12:08.946Z,0.83
2019-02-24T06:13:14.784Z,0.81
2019-02-24T06:14:23.511Z,0.81
2019-02-24T06:15:30.572Z,0.80
2019-02-24T06:16:36.535Z,0.81
2019-02-24T06:17:50.154Z,0.81
2019-02-24T06:18:58.086Z,0.83
2019-02-24T06:20:04.746Z,0.80
2019-02-24T06:21:11.273Z,0.80
2019-02-24T06:22:18.522Z,0.81
2019-02-24T06:23:24.610Z,0.80
2019-02-24T06:24:30.506Z,0.81
2019-02-24T06:25:37.044Z,0.83
2019-02-24T06:26:42.988Z,0.83
2019-02-24T06:27:51.176Z,0.84
2019-02-24T06:28:58.789Z,0.86
2019-02-24T06:30:05.842Z,0.86
2019-02-24T06:31:12.350Z,0.88
2019-02-24T06:32:19.101Z,0.93
2019-02-24T06:33:25.012Z,0.96
2019-02-24T06:34:31.693Z,0.98
2019-02-24T06:35:39.037Z,1.02
2019-02-24T06:36:45.524Z,1.06
2019-02-24T06:37:51.844Z,1.07
2019-02-24T06:39:00.494Z,1.11
2019-02-24T06:40:09.582Z,1.12
2019-02-24T06:41:20.684Z,1.15
2019-02-24T06:42:27.114Z,1.18
2019-02-24T06:43:49.473Z,1.19
2019-02-24T06:44:56.212Z,1.22
2019-02-24T06:46:03.621Z,1.19
2019-02-24T06:47:09.829Z,1.19
2019-02-24T06:48:17.616Z,1.19
2019-02-24T06:49:24.511Z,1.18
2019-02-24T06:50:35.338Z,1.19
2019-02-24T06:51:41.101Z,1.19
2019-02-24T06:52:47.935Z,1.21
2019-02-24T06:53:54.150Z,1.22
2019-02-24T06:55:01.378Z,1.22
2019-02-24T06:56:08.626Z,1.26
2019-02-24T06:57:14.727Z,1.31
2019-02-24T06:58:21.445Z,1.34
2019-02-24T06:59:28.265Z,1.37
2019-02-24T07:00:34.368Z,1.40
2019-02-24T07:01:41.610Z,1.44
2019-02-24T07:02:49.061Z,1.47
2019-02-24T07:03:56.175Z,1.46
2019-02-24T07:05:03.605Z,1.51
2019-02-24T07:06:09.805Z,1.54
2019-02-24T07:07:16.888Z,1.61
2019-02-24T07:08:23.202Z,1.69
2019-02-24T07:09:28.971Z,1.80
2019-02-24T07:10:35.464Z,1.87
2019-02-24T07:11:41.244Z,1.96
2019-02-24T07:12:47.128Z,2.01
2019-02-24T07:13:53.685Z,2.04
2019-02-24T07:14:59.797Z,2.08
2019-02-24T07:16:05.778Z,2.11
2019-02-24T07:17:12.336Z,2.20
2019-02-24T07:18:18.774Z,2.22
2019-02-24T07:19:24.639Z,2.23
2019-02-24T07:20:31.525Z,2.22
2019-02-24T07:21:40.186Z,2.19
2019-02-24T07:22:46.576Z,2.19
2019-02-24T07:23:52.906Z,2.23
2019-02-24T07:24:59.773Z,2.22
2019-02-24T07:26:05.413Z,2.23
2019-02-24T07:27:11.937Z,2.24
2019-02-24T07:28:18.622Z,2.30
2019-02-24T07:29:24.453Z,2.33
2019-02-24T07:30:31.811Z,2.38
2019-02-24T07:31:39.052Z,2.46
2019-02-24T07:32:45.031Z,2.46
2019-02-24T07:33:51.788Z,2.49
2019-02-24T07:34:59.346Z,2.51
2019-02-24T07:36:06.908Z,2.54
2019-02-24T07:37:13.666Z,2.58
2019-02-24T07:38:21.016Z,2.61
2019-02-24T07:39:26.814Z,2.68
2019-02-24T07:40:33.374Z,2.71
2019-02-24T07:41:40.095Z,2.76
2019-02-24T07:42:47.301Z,2.73
2019-02-24T07:43:53.341Z,2.71
2019-02-24T07:45:11.823Z,2.69
2019-02-24T07:46:18.414Z,2.73
2019-02-24T07:47:24.723Z,2.82
2019-02-24T07:48:31.978Z,2.88
2019-02-24T07:49:37.845Z,2.96
2019-02-24T07:50:44.640Z,2.95
2019-02-24T07:51:51.431Z,2.95
2019-02-24T07:52:57.344Z,2.94
2019-02-24T07:54:03.659Z,2.92
2019-02-24T07:55:10.428Z,2.92
2019-02-24T07:56:16.390Z,2.94
2019-02-24T07:57:22.580Z,2.96
2019-02-24T07:58:32.060Z,3.00
2019-02-24T07:59:39.195Z,3.03
2019-02-24T08:00:45.177Z,3.05
2019-02-24T08:01:51.857Z,3.06
2019-02-24T08:02:57.818Z,3.06
2019-02-24T08:04:04.600Z,3.09
2019-02-24T08:05:11.288Z,3.10
2019-02-24T08:06:17.511Z,3.09
2019-02-24T08:07:23.664Z,3.08
2019-02-24T08:08:30.670Z,3.09
2019-02-24T08:09:36.472Z,3.12
2019-02-24T08:10:43.998Z,3.11
2019-02-24T08:11:50.635Z,3.10
2019-02-24T08:12:56.604Z,3.06
2019-02-24T08:14:03.215Z,3.02
2019-02-24T08:15:11.215Z,3.00
2019-02-24T08:16:17.469Z,2.99
2019-02-24T08:17:25.067Z,2.97
2019-02-24T08:18:31.902Z,2.96
2019-02-24T08:19:38.041Z,2.98
2019-02-24T08:20:45.034Z,3.03
2019-02-24T08:21:51.495Z,3.09
2019-02-24T08:22:57.502Z,3.13
2019-02-24T08:24:04.329Z,3.20
2019-02-24T08:25:11.498Z,3.23
2019-02-24T08:26:17.501Z,3.24
2019-02-24T08:27:24.068Z,3.23
2019-02-24T08:28:31.704Z,3.19
2019-02-24T08:29:38.082Z,3.21
2019-02-24T08:30:45.122Z,3.24
2019-02-24T08:31:51.631Z,3.27
2019-02-24T08:32:58.305Z,3.30
2019-02-24T08:34:04.385Z,3.32
2019-02-24T08:35:12.037Z,3.35
2019-02-24T08:36:18.177Z,3.37
2019-02-24T08:37:24.527Z,3.38
2019-02-24T08:38:31.504Z,3.40
2019-02-24T08:39:37.617Z,3.42
2019-02-24T08:40:44.157Z,3.45
2019-02-24T08:41:51.554Z,3.49
2019-02-24T08:42:57.345Z,3.58
2019-02-24T08:44:04.177Z,3.61
2019-02-24T08:45:12.425Z,3.68
2019-02-24T08:46:18.431Z,3.74
2019-02-24T08:47:25.662Z,3.81
2019-02-24T08:48:32.605Z,3.80
2019-02-24T08:49:38.750Z,3.79
2019-02-24T08:50:45.295Z,3.79
2019-02-24T08:51:52.893Z,3.82
2019-02-24T08:52:59.384Z,3.85
2019-02-24T08:54:06.827Z,3.86
2019-02-24T08:55:14.326Z,3.91
2019-02-24T08:56:21.726Z,3.93
2019-02-24T08:57:27.940Z,4.00
2019-02-24T08:58:35.238Z,4.05
2019-02-24T08:59:41.112Z,4.10
2019-02-24T09:00:50.972Z,4.11
2019-02-24T09:01:55.922Z,4.18
2019-02-24T09:03:02.295Z,4.27
2019-02-24T09:04:09.075Z,4.29
2019-02-24T09:05:16.749Z,4.38
2019-02-24T09:06:23.605Z,4.43
2019-02-24T09:07:33.773Z,4.53
2019-02-24T09:08:40.902Z,4.64
2019-02-24T09:09:47.010Z,4.72
2019-02-24T09:10:56.818Z,4.76
2019-02-24T09:12:03.186Z,4.86
2019-02-24T09:13:09.592Z,4.97
2019-02-24T09:14:16.708Z,5.06
2019-02-24T09:15:26.138Z,5.11
2019-02-24T09:16:34.790Z,5.11
2019-02-24T09:17:41.882Z,5.12
2019-02-24T09:18:49.097Z,5.14
2019-02-24T09:19:55.139Z,5.14
2019-02-24T09:21:02.703Z,5.16
2019-02-24T09:22:10.231Z,5.16
2019-02-24T09:23:16.682Z,5.17
2019-02-24T09:24:25.008Z,5.20
2019-02-24T09:25:32.921Z,5.29
2019-02-24T09:26:41.681Z,5.31
2019-02-24T09:27:49.633Z,5.30
2019-02-24T09:28:56.352Z,5.32
2019-02-24T09:30:03.316Z,5.33
2019-02-24T09:31:09.673Z,5.38
2019-02-24T09:32:15.859Z,5.47
2019-02-24T09:33:23.551Z,5.47
2019-02-24T09:34:30.974Z,5.53
2019-02-24T09:35:37.678Z,5.52
2019-02-24T09:36:46.739Z,5.54
2019-02-24T09:37:54.657Z,5.67
2019-02-24T09:39:01.574Z,5.69
2019-02-24T09:40:14.581Z,5.63
2019-02-24T09:41:21.301Z,5.62
2019-02-24T09:42:27.294Z,5.53
2019-02-24T09:43:36.320Z,5.53
2019-02-24T09:44:45.460Z,5.55
2019-02-24T09:45:51.493Z,5.59
2019-02-24T09:46:59.734Z,5.65
2019-02-24T09:48:06.033Z,5.70
2019-02-24T09:49:14.375Z,5.68
2019-02-24T09:50:20.996Z,5.70
2019-02-24T09:51:28.693Z,5.69
2019-02-24T09:52:35.560Z,5.68
2019-02-24T09:53:42.708Z,5.71
2019-02-24T09:54:48.786Z,5.71
2019-02-24T09:55:56.605Z,5.74
2019-02-24T09:57:03.666Z,5.76
2019-02-24T09:58:11.011Z,5.82
2019-02-24T09:59:21.947Z,5.83
2019-02-24T10:00:29.516Z,5.84
2019-02-24T10:01:36.355Z,5.92
2019-02-24T10:02:46.067Z,5.97
2019-02-24T10:03:52.886Z,6.01
2019-02-24T10:05:00.473Z,6.05
2019-02-24T10:06:06.973Z,6.05
2019-02-24T10:07:14.435Z,6.08
2019-02-24T10:08:22.896Z,6.05
2019-02-24T10:09:29.553Z,6.07
2019-02-24T10:10:35.974Z,6.13
2019-02-24T10:11:42.813Z,6.20
2019-02-24T10:12:49.273Z,6.23
2019-02-24T10:13:55.983Z,6.28
2019-02-24T10:15:02.873Z,6.33
2019-02-24T10:16:09.654Z,6.39
2019-02-24T10:17:16.716Z,6.45
2019-02-24T10:18:23.467Z,6.57
2019-02-24T10:19:31.188Z,6.63
2019-02-24T10:20:38.664Z,6.70
2019-02-24T10:21:45.629Z,6.77
2019-02-24T10:22:51.581Z,6.84
2019-02-24T10:23:58.141Z,6.90
2019-02-24T10:25:06.009Z,6.94
2019-02-24T10:26:13.487Z,7.01
2019-02-24T10:27:21.341Z,7.03
2019-02-24T10:28:28.781Z,7.05
2019-02-24T10:29:35.855Z,7.04
2019-02-24T10:30:43.049Z,7.15
2019-02-24T10:31:49.841Z,7.19
2019-02-24T10:32:56.441Z,7.25
2019-02-24T10:34:03.581Z,7.20
2019-02-24T10:35:10.181Z,7.15
2019-02-24T10:36:17.564Z,7.10
2019-02-24T10:37:24.917Z,7.10
2019-02-24T10:38:32.021Z,7.18
2019-02-24T10:39:40.080Z,7.17
2019-02-24T10:40:47.251Z,7.25
2019-02-24T10:41:53.763Z,7.29
2019-02-24T10:43:00.719Z,7.34
2019-02-24T10:44:08.044Z,7.44
2019-02-24T10:45:19.531Z,7.49
2019-02-24T10:46:26.471Z,7.49
2019-02-24T10:47:54.131Z,7.50
2019-02-24T10:49:03.356Z,7.49
2019-02-24T10:50:13.599Z,7.58
2019-02-24T10:51:20.840Z,7.57
2019-02-24T10:52:28.301Z,7.64
2019-02-24T10:53:36.243Z,7.62
2019-02-24T10:54:42.532Z,7.70
2019-02-24T10:55:49.952Z,7.73
2019-02-24T10:56:57.347Z,7.75
2019-02-24T10:58:03.888Z,7.79
2019-02-24T10:59:12.167Z,7.82
2019-02-24T11:00:21.757Z,7.83
2019-02-24T11:01:29.895Z,7.82
2019-02-24T11:02:37.225Z,7.84
2019-02-24T11:03:43.781Z,7.88
2019-02-24T11:04:50.720Z,7.90
2019-02-24T11:05:59.179Z,7.93
2019-02-24T11:07:05.465Z,8.02
2019-02-24T11:08:11.585Z,8.08
2019-02-24T11:09:19.114Z,8.17
2019-02-24T11:10:25.327Z,8.25
2019-02-24T11:11:32.265Z,8.30
2019-02-24T11:12:39.491Z,8.28
2019-02-24T11:13:45.613Z,8.32
2019-02-24T11:14:53.945Z,8.35
2019-02-24T11:15:59.833Z,8.36
2019-02-24T11:17:07.092Z,8.44
2019-02-24T11:18:14.174Z,8.50
2019-02-24T11:19:20.212Z,8.54
2019-02-24T11:20:27.646Z,8.57
2019-02-24T11:21:35.633Z,8.58
2019-02-24T11:22:43.526Z,8.63
2019-02-24T11:23:51.376Z,8.63
2019-02-24T11:24:58.605Z,8.59
2019-02-24T11:26:05.525Z,8.56
2019-02-24T11:27:12.302Z,8.62
2019-02-24T11:28:19.305Z,8.68
2019-02-24T11:29:25.665Z,8.72
2019-02-24T11:30:33.018Z,8.76
2019-02-24T11:31:40.794Z,8.76
2019-02-24T11:32:47.166Z,8.77
2019-02-24T11:33:53.992Z,8.79
2019-02-24T11:35:00.446Z,8.77
2019-02-24T11:36:06.766Z,8.69
2019-02-24T11:37:14.185Z,8.68
2019-02-24T11:38:22.047Z,8.70
2019-02-24T11:39:29.565Z,8.71
2019-02-24T11:40:36.493Z,8.69
2019-02-24T11:41:43.652Z,8.64
2019-02-24T11:42:49.904Z,8.59
2019-02-24T11:43:57.077Z,8.58
2019-02-24T11:45:05.557Z,8.55
2019-02-24T11:46:12.233Z,8.60
2019-02-24T11:47:19.992Z,8.54
2019-02-24T11:48:26.742Z,8.47
2019-02-24T11:49:32.620Z,8.46
2019-02-24T11:50:39.534Z,8.46
2019-02-24T11:51:46.169Z,8.45
2019-02-24T11:52:52.461Z,8.43
2019-02-24T11:53:59.669Z,8.42
2019-02-24T11:55:08.419Z,8.39
2019-02-24T11:56:16.604Z,8.38
2019-02-24T11:57:23.332Z,8.28
2019-02-24T11:58:32.437Z,8.26
2019-02-24T11:59:38.566Z,8.28
2019-02-24T12:00:45.364Z,8.26
2019-02-24T12:01:52.977Z,8.23
2019-02-24T12:03:00.055Z,8.24
2019-02-24T12:04:07.063Z,8.24
2019-02-24T12:05:14.503Z,8.24
2019-02-24T12:06:20.890Z,8.25
2019-02-24T12:07:29.051Z,8.23
2019-02-24T12:08:36.500Z,8.21
2019-02-24T12:09:44.180Z,8.18
2019-02-24T12:10:52.808Z,8.15
2019-02-24T12:11:59.725Z,8.17
2019-02-24T12:13:06.718Z,8.23
2019-02-24T12:14:15.351Z,8.35
2019-02-24T12:15:23.011Z,8.45
2019-02-24T12:16:30.859Z,8.56
2019-02-24T12:17:38.401Z,8.65
2019-02-24T12:18:45.297Z,8.74
2019-02-24T12:19:52.353Z,8.78
2019-02-24T12:20:59.432Z,8.84
2019-02-24T12:22:06.473Z,8.85
2019-02-24T12:23:14.980Z,8.87
2019-02-24T12:24:22.348Z,8.85
2019-02-24T12:25:28.901Z,8.84
2019-02-24T12:26:37.760Z,8.82
2019-02-24T12:27:44.113Z,8.79
2019-02-24T12:28:50.754Z,8.79
2019-02-24T12:29:58.905Z,8.80
2019-02-24T12:31:06.104Z,8.83
2019-02-24T12:32:12.992Z,8.88
2019-02-24T12:33:19.604Z,8.93
2019-02-24T12:34:27.304Z,8.98
2019-02-24T12:35:36.830Z,9.02
2019-02-24T12:36:44.050Z,9.06
2019-02-24T12:37:52.022Z,9.14
2019-02-24T12:39:01.331Z,9.19
2019-02-24T12:40:20.309Z,9.23
2019-02-24T12:41:29.163Z,9.27
2019-02-24T12:42:37.991Z,9.31
2019-02-24T12:43:45.756Z,9.36
2019-02-24T12:44:54.192Z,9.43
2019-02-24T12:46:01.464Z,9.46
2019-02-24T12:47:11.004Z,9.51
2019-02-24T12:48:18.871Z,9.57
2019-02-24T12:49:28.944Z,9.66
2019-02-24T12:50:34.860Z,9.71
2019-02-24T12:51:43.560Z,9.78
2019-02-24T12:52:50.162Z,9.84
2019-02-24T12:53:56.927Z,9.92
2019-02-24T12:55:05.886Z,9.96
2019-02-24T12:56:12.147Z,10.01
2019-02-24T12:57:19.387Z,10.03
2019-02-24T12:58:26.760Z,10.00
2019-02-24T12:59:33.048Z,9.98
2019-02-24T13:00:39.940Z,10.01
2019-02-24T13:01:46.699Z,10.06
2019-02-24T13:02:52.963Z,10.09
2019-02-24T13:04:00.567Z,10.10
2019-02-24T13:05:08.283Z,10.10
2019-02-24T13:06:15.553Z,10.16
2019-02-24T13:07:23.011Z,10.17
2019-02-24T13:08:30.872Z,10.18
2019-02-24T13:09:37.025Z,10.17
2019-02-24T13:10:44.706Z,10.20
2019-02-24T13:11:51.632Z,10.20
2019-02-24T13:12:58.007Z,10.26
2019-02-24T13:14:05.164Z,10.31
2019-02-24T13:15:13.516Z,10.37
2019-02-24T13:16:20.144Z,10.40
2019-02-24T13:17:26.883Z,10.45
2019-02-24T13:18:36.914Z,10.45
2019-02-24T13:19:44.509Z,10.48
2019-02-24T13:20:51.621Z,10.48
2019-02-24T13:21:59.301Z,10.48
2019-02-24T13:23:07.721Z,10.51
2019-02-24T13:24:15.081Z,10.55
2019-02-24T13:25:23.410Z,10.56
2019-02-24T13:26:30.496Z,10.59
2019-02-24T13:27:38.639Z,10.61
2019-02-24T13:28:50.492Z,10.68
2019-02-24T13:29:53.881Z,10.72
2019-02-24T13:31:01.102Z,10.73
2019-02-24T13:32:14.899Z,10.76
2019-02-24T13:33:18.768Z,10.80
2019-02-24T13:34:26.978Z,10.79
2019-02-24T13:35:33.816Z,10.82
2019-02-24T13:36:41.016Z,10.83
2019-02-24T13:37:49.877Z,10.84
2019-02-24T13:38:58.803Z,10.86
2019-02-24T13:40:10.483Z,10.90
2019-02-24T13:41:18.212Z,10.95
2019-02-24T13:42:24.892Z,10.97
2019-02-24T13:43:32.100Z,11.00
2019-02-24T13:44:39.778Z,11.01
2019-02-24T13:45:46.659Z,11.04
2019-02-24T13:46:53.932Z,11.05
2019-02-24T13:48:02.220Z,11.06
2019-02-24T13:49:09.210Z,11.09
2019-02-24T13:50:16.497Z,11.09
2019-02-24T13:51:24.781Z,11.10
2019-02-24T13:52:31.799Z,11.12
2019-02-24T13:53:38.904Z,11.16
2019-02-24T13:54:46.288Z,11.20
2019-02-24T13:55:53.000Z,11.20
2019-02-24T13:56:59.999Z,11.23
2019-02-24T13:58:06.849Z,11.26
2019-02-24T13:59:13.589Z,11.26
2019-02-24T14:00:21.922Z,11.26
2019-02-24T14:01:28.821Z,11.30
2019-02-24T14:02:36.001Z,11.27
2019-02-24T14:03:43.310Z,11.29
2019-02-24T14:04:50.770Z,11.30
2019-02-24T14:05:58.467Z,11.30
2019-02-24T14:07:06.300Z,11.30
2019-02-24T14:08:13.552Z,11.31
2019-02-24T14:09:19.861Z,11.32
2019-02-24T14:10:27.352Z,11.34
2019-02-24T14:11:34.743Z,11.36
2019-02-24T14:12:42.211Z,11.36
2019-02-24T14:13:49.504Z,11.34
2019-02-24T14:14:56.871Z,11.37
2019-02-24T14:16:04.867Z,11.35
2019-02-24T14:17:12.183Z,11.39
2019-02-24T14:18:20.129Z,11.39
2019-02-24T14:19:27.035Z,11.40
2019-02-24T14:20:34.435Z,11.40
2019-02-24T14:21:41.877Z,11.40
2019-02-24T14:22:48.369Z,11.40
2019-02-24T14:23:55.917Z,11.42
2019-02-24T14:25:03.890Z,11.46
2019-02-24T14:26:11.409Z,11.44
2019-02-24T14:27:19.008Z,11.45
2019-02-24T14:28:26.008Z,11.42
2019-02-24T14:29:32.810Z,11.44
2019-02-24T14:30:39.722Z,11.44
2019-02-24T14:31:48.310Z,11.45
2019-02-24T14:32:57.131Z,11.45
2019-02-24T14:34:04.875Z,11.44
2019-02-24T14:35:15.824Z,11.45
2019-02-24T14:36:23.826Z,11.44
2019-02-24T14:37:30.429Z,11.42
2019-02-24T14:38:37.172Z,11.45
2019-02-24T14:39:43.669Z,11.43
2019-02-24T14:40:50.633Z,11.43
2019-02-24T14:41:58.183Z,11.40
2019-02-24T14:43:05.051Z,11.44
2019-02-24T14:44:12.503Z,11.43
2019-02-24T14:45:24.284Z,11.41
2019-02-24T14:46:30.749Z,11.38
2019-02-24T14:47:38.301Z,11.41
2019-02-24T14:48:45.448Z,11.38
2019-02-24T14:49:51.958Z,11.39
2019-02-24T14:50:59.247Z,11.40
2019-02-24T14:52:07.128Z,11.39
2019-02-24T14:53:15.408Z,11.40